METAR Data
IDs: Format: Raw Decoded Include TAF

Data at: 1332 UTC 22 Apr 2021

KGIF 221253Z AUTO 03013KT 10SM CLR 18/09 A3012 RMK AO2 SLP198 T01830094
KGIF 221153Z AUTO 03008KT 10SM CLR 17/11 A3011 RMK AO2 SLP195 T01720106 10189 20161 53021
KGIF 221053Z AUTO 01005KT 10SM CLR 16/12 A3010 RMK AO2 SLP189 T01610122
KGIF 220953Z AUTO 01006KT 10SM CLR 17/14 A3007 RMK AO2 SLP179 T01720139
KGIF 220853Z AUTO 34008KT 10SM CLR 18/15 A3005 RMK AO2 SLP174 T01830150 53011
KGIF 220753Z AUTO 33005KT 10SM CLR 18/15 A3001 RMK AO2 SLP161 T01830150
KGIF 220653Z AUTO 32007KT 10SM CLR 18/15 A3002 RMK AO2 SLP162 T01830150
KGIF 220553Z AUTO 30007KT 10SM CLR 19/15 A3002 RMK AO2 SLP163 T01890150 10244 20189 58008
KGIF 220453Z AUTO 30010KT 10SM CLR 19/14 A3004 RMK AO2 SLP168 T01940144 403000189
KGIF 220353Z AUTO 29006KT 10SM CLR 19/13 A3005 RMK AO2 SLP173 T01890128
KGIF 220253Z AUTO 25005KT 10SM CLR 21/12 A3004 RMK AO2 SLP171 T02110122 51015
KGIF 220153Z AUTO 27006KT 10SM CLR 21/12 A3003 RMK AO2 SLP167 T02110117
KGIF 220053Z AUTO 27006KT 10SM CLR 23/11 A3002 RMK AO2 SLP162 T02280111
KGIF 212353Z AUTO 29008KT 10SM CLR 24/10 A3000 RMK AO2 SLP157 T02440100 10300 20244 53014
KGIF 212253Z AUTO 30011KT 10SM CLR 27/10 A2999 RMK AO2 SLP152 T02720100
KGIF 212153Z AUTO 29012KT 10SM CLR 29/10 A2997 RMK AO2 SLP146 T02890100
KGIF 212053Z AUTO 27010KT 10SM CLR 29/12 A2996 RMK AO2 SLP143 T02890122 56016
KGIF 211953Z AUTO VRB05KT 10SM CLR 29/14 A2997 RMK AO2 SLP146 T02890139
KGIF 211853Z AUTO 30008KT 10SM CLR 29/14 A3000 RMK AO2 SLP155 T02890144
KGIF 211753Z AUTO 32007KT 10SM CLR 27/13 A3001 RMK AO2 SLP159 T02720133 10278 20217 58007
KGIF 211653Z AUTO 30008KT 10SM BKN065 27/14 A3002 RMK AO2 SLP164 T02670144
KGIF 211553Z AUTO VRB06KT 10SM OVC070 26/16 A3004 RMK AO2 SLP169 T02610161
KGIF 211453Z AUTO 33007KT 10SM FEW070 25/18 A3003 RMK AO2 SLP166 T02500183 51007
KGIF 211428Z AUTO 34007KT 10SM FEW016 BKN070 24/18 A3002 RMK AO2 T02440183
KGIF 211421Z AUTO 34007KT 2 1/2SM HZ SCT016 OVC070 24/18 A3002 RMK AO2 T02390183
KGIF 211417Z AUTO 34007KT 1/2SM HZ SCT016 OVC065 24/18 A3002 RMK AO2 T02390183
KGIF 211411Z AUTO 35007KT BKN016 OVC065 24/19 A3002 RMK AO2 T02390189 $
KGIF 211353Z AUTO FEW015 OVC060 23/19 A3002 RMK AO2 SLP163 T02330189 $
KGIF 211315Z AUTO 32008KT FEW013 BKN060 23/19 A3002 RMK AO2 T02330194 $
KGIF 211307Z AUTO 32008KT 1/2SM HZ FEW013 BKN060 23/19 A3002 RMK AO2 T02280194
KGIF 211253Z AUTO 31007KT 10SM FEW013 SCT060 23/19 A3002 RMK AO2 SLP163 T02280194
KGIF 211153Z AUTO 30006KT 10SM CLR 22/20 A3001 RMK AO2 SLP159 7//// T02170200 10222 20211 53014
KGIF 211053Z AUTO 29007KT 10SM CLR 22/20 A2999 RMK AO2 SLP153 T02170200
KGIF 210953Z AUTO 26005KT 10SM BKN035 22/21 A2998 RMK AO2 SLP150 T02220206
KGIF 210853Z AUTO 00000KT 8SM OVC035 22/21 A2997 RMK AO2 SLP145 T02170206 55000
KGIF 210822Z AUTO 00000KT 9SM OVC032 22/21 A2997 RMK AO2 T02220206
KGIF 210753Z AUTO 00000KT 10SM BKN029 22/21 A2996 RMK AO2 SLP144 T02170206
KGIF 210720Z AUTO 21004KT 10SM FEW014 BKN027 22/20 A2996 RMK AO2 T02170200
KGIF 210713Z AUTO 21003KT 10SM SCT027 22/20 A2996 RMK AO2 T02170200
KGIF 210653Z AUTO 17003KT 10SM BKN027 22/20 A2995 RMK AO2 SLP141 T02170200
KGIF 210625Z AUTO 00000KT 10SM SCT015 BKN028 22/20 A2997 RMK AO2 T02170200
KGIF 210553Z AUTO 17003KT 10SM FEW030 22/20 A2997 RMK AO2 SLP146 T02170200 10233 20217 58002
KGIF 210453Z AUTO 00000KT 10SM CLR 22/21 A2997 RMK AO2 SLP147 T02220206 402560211
KGIF 210417Z AUTO 07003KT 10SM FEW019 SCT036 22/20 A2998 RMK AO2 T02170200
KGIF 210353Z AUTO 09004KT 10SM FEW014 OVC018 22/20 A2998 RMK AO2 SLP150 T02220200
KGIF 210325Z AUTO 01003KT 10SM BKN018 22/20 A2999 RMK AO2 T02220200
KGIF 210253Z AUTO 09005KT 10SM FEW032 FEW045 22/20 A2997 RMK AO2 SLP147 T02220200 50013
KGIF 210241Z AUTO 08004KT 10SM SCT021 SCT032 BKN044 22/20 A2998 RMK AO2 T02220200
KGIF 210153Z AUTO 05003KT 10SM BKN016 BKN023 OVC039 22/20 A2997 RMK AO2 SLP148 T02220200